createdAt,value
2018-03-26T00:00:34.274Z,10.99
2018-03-26T00:01:37.633Z,10.97
2018-03-26T00:02:40.969Z,10.95
2018-03-26T00:03:44.353Z,10.94
2018-03-26T00:04:47.719Z,10.92
2018-03-26T00:05:51.030Z,10.90
2018-03-26T00:06:54.410Z,10.88
2018-03-26T00:07:57.739Z,10.87
2018-03-26T00:09:01.099Z,10.85
2018-03-26T00:10:04.480Z,10.84
2018-03-26T00:11:07.649Z,10.82
2018-03-26T00:12:10.688Z,10.81
2018-03-26T00:13:13.738Z,10.81
2018-03-26T00:14:17.757Z,10.81
2018-03-26T00:15:20.820Z,10.80
2018-03-26T00:16:23.852Z,10.80
2018-03-26T00:17:26.932Z,10.80
2018-03-26T00:18:29.980Z,10.80
2018-03-26T00:19:33.119Z,10.80
2018-03-26T00:20:36.183Z,10.82
2018-03-26T00:21:39.256Z,10.81
2018-03-26T00:22:42.426Z,10.82
2018-03-26T00:23:45.504Z,10.82
2018-03-26T00:24:48.640Z,10.82
2018-03-26T00:25:51.685Z,10.82
2018-03-26T00:26:55.084Z,10.82
2018-03-26T00:27:58.134Z,10.83
2018-03-26T00:29:01.188Z,10.82
2018-03-26T00:30:04.248Z,10.83
2018-03-26T00:31:07.296Z,10.82
2018-03-26T00:32:10.352Z,10.82
2018-03-26T00:33:13.430Z,10.80
2018-03-26T00:34:16.517Z,10.78
2018-03-26T00:35:19.647Z,10.77
2018-03-26T00:36:22.761Z,10.75
2018-03-26T00:37:25.828Z,10.75
2018-03-26T00:38:28.909Z,10.72
2018-03-26T00:39:31.974Z,10.70
2018-03-26T00:40:35.069Z,10.70
2018-03-26T00:41:38.188Z,10.68
2018-03-26T00:42:41.228Z,10.65
2018-03-26T00:43:44.332Z,10.64
2018-03-26T00:44:47.420Z,10.63
2018-03-26T00:45:50.494Z,10.61
2018-03-26T00:46:53.579Z,10.60
2018-03-26T00:47:56.599Z,10.58
2018-03-26T00:48:59.675Z,10.57
2018-03-26T00:50:02.751Z,10.55
2018-03-26T00:51:05.852Z,10.53
2018-03-26T00:52:08.926Z,10.50
2018-03-26T00:53:12.018Z,10.49
2018-03-26T00:54:15.049Z,10.47
2018-03-26T00:55:18.142Z,10.46
2018-03-26T00:56:21.207Z,10.44
2018-03-26T00:57:24.285Z,10.42
2018-03-26T00:58:27.429Z,10.40
2018-03-26T00:59:30.490Z,10.39
2018-03-26T01:00:33.568Z,10.38
2018-03-26T01:01:36.605Z,10.36
2018-03-26T01:02:39.801Z,10.34
2018-03-26T01:03:42.903Z,10.32
2018-03-26T01:04:45.956Z,10.31
2018-03-26T01:05:49.032Z,10.30
2018-03-26T01:06:52.165Z,10.28
2018-03-26T01:07:55.207Z,10.26
2018-03-26T01:08:58.275Z,10.25
2018-03-26T01:10:01.312Z,10.24
2018-03-26T01:11:04.394Z,10.23
2018-03-26T01:12:07.524Z,10.22
2018-03-26T01:13:10.608Z,10.19
2018-03-26T01:14:13.672Z,10.18
2018-03-26T01:15:16.774Z,10.16
2018-03-26T01:16:19.845Z,10.15
2018-03-26T01:17:22.920Z,10.14
2018-03-26T01:18:25.988Z,10.12
2018-03-26T01:19:29.158Z,10.11
2018-03-26T01:20:32.195Z,10.10
2018-03-26T01:21:35.239Z,10.09
2018-03-26T01:22:38.407Z,10.08
2018-03-26T01:23:41.439Z,10.08
2018-03-26T01:24:44.525Z,10.06
2018-03-26T01:25:47.600Z,10.05
2018-03-26T01:26:50.783Z,10.04
2018-03-26T01:27:53.864Z,10.03
2018-03-26T01:28:56.949Z,10.02
2018-03-26T01:30:00.017Z,10.00
2018-03-26T01:31:03.099Z,9.99
2018-03-26T01:32:06.112Z,9.98
2018-03-26T01:33:09.215Z,9.96
2018-03-26T01:34:12.313Z,9.95
2018-03-26T01:35:15.444Z,9.92
2018-03-26T01:36:18.521Z,9.91
2018-03-26T01:37:21.620Z,9.90
2018-03-26T01:38:24.684Z,9.88
2018-03-26T01:39:27.739Z,9.87
2018-03-26T01:40:30.836Z,9.85
2018-03-26T01:41:34.224Z,9.83
2018-03-26T01:42:37.263Z,9.82
2018-03-26T01:43:40.373Z,9.82
2018-03-26T01:44:43.454Z,9.80
2018-03-26T01:45:46.545Z,9.80
2018-03-26T01:46:49.588Z,9.78
2018-03-26T01:47:52.654Z,9.78
2018-03-26T01:48:55.767Z,9.77
2018-03-26T01:49:58.807Z,9.76
2018-03-26T01:51:01.879Z,9.75
2018-03-26T01:52:04.930Z,9.75
2018-03-26T01:53:08.010Z,9.73
2018-03-26T01:54:11.172Z,9.74
2018-03-26T01:55:14.277Z,9.74
2018-03-26T01:56:17.323Z,9.73
2018-03-26T01:57:20.396Z,9.75
2018-03-26T01:58:23.472Z,9.75
2018-03-26T01:59:26.545Z,9.75
2018-03-26T02:00:29.581Z,9.76
2018-03-26T02:01:32.657Z,9.76
2018-03-26T02:02:35.695Z,9.76
2018-03-26T02:03:38.742Z,9.77
2018-03-26T02:04:41.806Z,9.76
2018-03-26T02:05:44.840Z,9.76
2018-03-26T02:06:47.894Z,9.77
2018-03-26T02:07:50.961Z,9.78
2018-03-26T02:08:54.050Z,9.77
2018-03-26T02:09:57.134Z,9.77
2018-03-26T02:11:00.147Z,9.75
2018-03-26T02:12:03.214Z,9.74
2018-03-26T02:13:06.247Z,9.75
2018-03-26T02:14:09.287Z,9.76
2018-03-26T02:15:12.366Z,9.75
2018-03-26T02:16:17.048Z,9.75
2018-03-26T02:17:20.102Z,9.75
2018-03-26T02:18:23.130Z,9.73
2018-03-26T02:19:26.223Z,9.73
2018-03-26T02:20:29.380Z,9.72
2018-03-26T02:21:32.412Z,9.71
2018-03-26T02:22:35.452Z,9.71
2018-03-26T02:23:38.562Z,9.69
2018-03-26T02:24:41.621Z,9.68
2018-03-26T02:25:44.717Z,9.67
2018-03-26T02:26:47.798Z,9.67
2018-03-26T02:27:51.857Z,9.65
2018-03-26T02:28:54.903Z,9.64
2018-03-26T02:29:57.968Z,9.63
2018-03-26T02:31:01.064Z,9.62
2018-03-26T02:32:04.115Z,9.61
2018-03-26T02:33:07.147Z,9.61
2018-03-26T02:34:10.203Z,9.62
2018-03-26T02:35:13.259Z,9.63
2018-03-26T02:36:16.398Z,9.64
2018-03-26T02:37:19.435Z,9.66
2018-03-26T02:38:22.497Z,9.67
2018-03-26T02:39:25.515Z,9.67
2018-03-26T02:40:28.552Z,9.68
2018-03-26T02:41:31.610Z,9.69
2018-03-26T02:42:34.717Z,9.68
2018-03-26T02:43:38.374Z,9.67
2018-03-26T02:44:41.413Z,9.66
2018-03-26T02:45:44.476Z,9.66
2018-03-26T02:46:47.547Z,9.65
2018-03-26T02:47:50.603Z,9.65
2018-03-26T02:48:53.648Z,9.65
2018-03-26T02:49:56.693Z,9.65
2018-03-26T02:50:59.745Z,9.65
2018-03-26T02:52:02.831Z,9.67
2018-03-26T02:53:05.852Z,9.66
2018-03-26T02:54:08.919Z,9.67
2018-03-26T02:55:11.983Z,9.67
2018-03-26T02:56:15.056Z,9.66
2018-03-26T02:57:18.213Z,9.67
2018-03-26T02:58:21.244Z,9.68
2018-03-26T02:59:24.276Z,9.69
2018-03-26T03:00:27.299Z,9.71
2018-03-26T03:01:30.347Z,9.72
2018-03-26T03:02:33.427Z,9.71
2018-03-26T03:03:36.523Z,9.71
2018-03-26T03:04:39.639Z,9.71
2018-03-26T03:05:42.674Z,9.72
2018-03-26T03:06:45.772Z,9.71
2018-03-26T03:07:48.837Z,9.70
2018-03-26T03:08:51.895Z,9.71
2018-03-26T03:09:54.967Z,9.70
2018-03-26T03:10:58.008Z,9.70
2018-03-26T03:12:01.078Z,9.70
2018-03-26T03:13:04.115Z,9.69
2018-03-26T03:14:07.165Z,9.69
2018-03-26T03:15:10.248Z,9.69
2018-03-26T03:16:13.289Z,9.69
2018-03-26T03:17:17.833Z,9.67
2018-03-26T03:18:20.911Z,9.66
2018-03-26T03:19:23.941Z,9.66
2018-03-26T03:20:27.032Z,9.65
2018-03-26T03:21:30.076Z,9.64
2018-03-26T03:22:33.116Z,9.63
2018-03-26T03:23:36.173Z,9.62
2018-03-26T03:24:39.218Z,9.62
2018-03-26T03:25:42.248Z,9.61
2018-03-26T03:26:45.312Z,9.59
2018-03-26T03:27:48.336Z,9.58
2018-03-26T03:28:51.398Z,9.57
2018-03-26T03:29:54.445Z,9.56
2018-03-26T03:30:57.530Z,9.54
2018-03-26T03:32:00.599Z,9.55
2018-03-26T03:33:03.631Z,9.54
2018-03-26T03:34:06.735Z,9.54
2018-03-26T03:35:09.800Z,9.54
2018-03-26T03:36:12.828Z,9.54
2018-03-26T03:37:15.933Z,9.55
2018-03-26T03:38:18.967Z,9.56
2018-03-26T03:39:22.022Z,9.57
2018-03-26T03:40:25.142Z,9.56
2018-03-26T03:41:28.208Z,9.55
2018-03-26T03:42:31.239Z,9.56
2018-03-26T03:43:34.397Z,9.56
2018-03-26T03:44:37.456Z,9.57
2018-03-26T03:45:40.488Z,9.58
2018-03-26T03:46:43.557Z,9.58
2018-03-26T03:48:55.856Z,9.56
2018-03-26T03:49:58.940Z,9.56
2018-03-26T03:51:02.027Z,9.57
2018-03-26T03:52:05.110Z,9.57
2018-03-26T03:53:08.118Z,9.57
2018-03-26T03:54:11.199Z,9.58
2018-03-26T03:55:14.244Z,9.56
2018-03-26T03:56:17.283Z,9.56
2018-03-26T03:57:20.332Z,9.55
2018-03-26T03:58:23.363Z,9.53
2018-03-26T03:59:26.449Z,9.50
2018-03-26T04:00:29.514Z,9.49
2018-03-26T04:01:32.641Z,9.45
2018-03-26T04:02:35.721Z,9.42
2018-03-26T04:03:38.760Z,9.39
2018-03-26T04:04:41.788Z,9.37
2018-03-26T04:05:44.858Z,9.34
2018-03-26T04:06:47.934Z,9.29
2018-03-26T04:07:50.980Z,9.25
2018-03-26T04:08:54.028Z,9.22
2018-03-26T04:09:57.928Z,9.19
2018-03-26T04:11:01.000Z,9.16
2018-03-26T04:12:04.050Z,9.12
2018-03-26T04:13:07.120Z,9.08
2018-03-26T04:14:10.178Z,9.07
2018-03-26T04:15:13.215Z,9.05
2018-03-26T04:16:16.363Z,9.02
2018-03-26T04:17:19.388Z,9.01
2018-03-26T04:18:22.429Z,8.99
2018-03-26T04:19:25.487Z,8.98
2018-03-26T04:20:28.580Z,8.96
2018-03-26T04:21:31.644Z,8.95
2018-03-26T04:22:34.682Z,8.93
2018-03-26T04:23:37.798Z,8.92
2018-03-26T04:24:40.818Z,8.89
2018-03-26T04:25:43.989Z,8.88
2018-03-26T04:26:47.043Z,8.86
2018-03-26T04:27:50.092Z,8.86
2018-03-26T04:28:53.146Z,8.84
2018-03-26T04:29:56.211Z,8.82
2018-03-26T04:30:59.346Z,8.81
2018-03-26T04:32:02.490Z,8.79
2018-03-26T04:33:05.459Z,8.78
2018-03-26T04:34:08.533Z,8.76
2018-03-26T04:35:11.563Z,8.75
2018-03-26T04:36:14.620Z,8.74
2018-03-26T04:37:17.785Z,8.72
2018-03-26T04:38:20.840Z,8.71
2018-03-26T04:39:23.933Z,8.70
2018-03-26T04:40:26.947Z,8.68
2018-03-26T04:41:30.834Z,8.66
2018-03-26T04:42:33.909Z,8.64
2018-03-26T04:43:37.011Z,8.63
2018-03-26T04:44:40.068Z,8.60
2018-03-26T04:45:43.096Z,8.58
2018-03-26T04:46:46.196Z,8.57
2018-03-26T04:47:49.313Z,8.56
2018-03-26T04:48:52.354Z,8.53
2018-03-26T04:49:55.384Z,8.52
2018-03-26T04:50:58.510Z,8.51
2018-03-26T04:52:01.585Z,8.50
2018-03-26T04:53:04.635Z,8.49
2018-03-26T04:54:07.703Z,8.48
2018-03-26T04:55:10.759Z,8.46
2018-03-26T04:56:13.800Z,8.45
2018-03-26T04:57:16.895Z,8.44
2018-03-26T04:58:19.976Z,8.43
2018-03-26T04:59:23.042Z,8.42
2018-03-26T05:00:26.084Z,8.41
2018-03-26T05:01:29.128Z,8.40
2018-03-26T05:02:32.347Z,8.40
2018-03-26T05:03:37.230Z,8.39
2018-03-26T05:04:40.257Z,8.38
2018-03-26T05:05:43.287Z,8.38
2018-03-26T05:06:46.426Z,8.38
2018-03-26T05:07:49.542Z,8.38
2018-03-26T05:08:52.587Z,8.39
2018-03-26T05:09:55.649Z,8.40
2018-03-26T05:10:58.704Z,8.41
2018-03-26T05:12:01.770Z,8.42
2018-03-26T05:13:04.805Z,8.43
2018-03-26T05:14:07.881Z,8.46
2018-03-26T05:15:10.958Z,8.48
2018-03-26T05:16:13.978Z,8.49
2018-03-26T05:17:17.043Z,8.50
2018-03-26T05:18:22.323Z,8.50
2018-03-26T05:19:25.434Z,8.52
2018-03-26T05:20:28.632Z,8.53
2018-03-26T05:21:31.709Z,8.54
2018-03-26T05:22:34.757Z,8.55
2018-03-26T05:23:37.949Z,8.55
2018-03-26T05:24:41.033Z,8.56
2018-03-26T05:25:44.095Z,8.56
2018-03-26T05:26:47.202Z,8.56
2018-03-26T05:27:50.264Z,8.56
2018-03-26T05:28:53.342Z,8.57
2018-03-26T05:29:56.438Z,8.58
2018-03-26T05:31:00.196Z,8.57
2018-03-26T05:32:03.289Z,8.57
2018-03-26T05:33:06.481Z,8.57
2018-03-26T05:34:09.633Z,8.57
2018-03-26T05:35:12.749Z,8.57
2018-03-26T05:36:15.780Z,8.58
2018-03-26T05:37:19.439Z,8.59
2018-03-26T05:38:22.531Z,8.59
2018-03-26T05:39:25.563Z,8.60
2018-03-26T05:40:28.721Z,8.61
2018-03-26T05:41:31.775Z,8.62
2018-03-26T05:42:34.828Z,8.64
2018-03-26T05:43:37.906Z,8.65
2018-03-26T05:44:40.955Z,8.68
2018-03-26T05:45:44.284Z,8.69
2018-03-26T05:46:47.348Z,8.69
2018-03-26T05:47:50.467Z,8.71
2018-03-26T05:48:53.533Z,8.72
2018-03-26T05:49:56.570Z,8.72
2018-03-26T05:50:59.730Z,8.73
2018-03-26T05:52:02.832Z,8.75
2018-03-26T05:53:05.919Z,8.77
2018-03-26T05:54:08.950Z,8.77
2018-03-26T05:55:12.160Z,8.77
2018-03-26T05:56:15.284Z,8.77
2018-03-26T05:57:18.323Z,8.76
2018-03-26T05:58:21.399Z,8.77
2018-03-26T05:59:24.536Z,8.77
2018-03-26T06:00:27.570Z,8.77
2018-03-26T06:01:30.678Z,8.77
2018-03-26T06:02:33.728Z,8.76
2018-03-26T06:03:36.827Z,8.74
2018-03-26T06:04:39.899Z,8.73
2018-03-26T06:05:42.977Z,8.72
2018-03-26T06:06:46.047Z,8.71
2018-03-26T06:07:49.138Z,8.71
2018-03-26T06:08:52.352Z,8.71
2018-03-26T06:09:55.404Z,8.71
2018-03-26T06:10:58.506Z,8.72
2018-03-26T06:12:01.616Z,8.72
2018-03-26T06:13:04.681Z,8.71
2018-03-26T06:14:07.784Z,8.72
2018-03-26T06:15:10.999Z,8.72
2018-03-26T06:16:14.037Z,8.72
2018-03-26T06:17:17.124Z,8.74
2018-03-26T06:18:20.201Z,8.74
2018-03-26T06:19:24.632Z,8.75
2018-03-26T06:20:27.680Z,8.74
2018-03-26T06:21:30.698Z,8.76
2018-03-26T06:22:33.777Z,8.77
2018-03-26T06:23:36.831Z,8.78
2018-03-26T06:24:39.978Z,8.78
2018-03-26T06:25:43.069Z,8.78
2018-03-26T06:26:46.083Z,8.79
2018-03-26T06:27:49.486Z,8.80
2018-03-26T06:28:52.545Z,8.81
2018-03-26T06:29:55.568Z,8.80
2018-03-26T06:30:58.773Z,8.80
2018-03-26T06:32:01.869Z,8.80
2018-03-26T06:33:04.927Z,8.79
2018-03-26T06:34:07.995Z,8.80
2018-03-26T06:35:11.069Z,8.80
2018-03-26T06:36:18.595Z,8.79
2018-03-26T06:37:32.108Z,8.79
2018-03-26T06:38:51.087Z,8.76
2018-03-26T06:39:54.259Z,8.75
2018-03-26T06:40:57.326Z,8.77
2018-03-26T06:42:00.362Z,8.79
2018-03-26T06:43:03.420Z,8.78
2018-03-26T06:44:06.605Z,8.78
2018-03-26T06:45:09.629Z,8.77
2018-03-26T06:46:12.668Z,8.75
2018-03-26T06:47:15.709Z,8.75
2018-03-26T06:48:18.820Z,8.75
2018-03-26T06:49:21.980Z,8.75
2018-03-26T06:50:25.099Z,8.76
2018-03-26T06:51:28.200Z,8.76
2018-03-26T06:52:31.361Z,8.77
2018-03-26T06:53:34.385Z,8.78
2018-03-26T06:54:37.566Z,8.79
2018-03-26T06:55:40.620Z,8.80
2018-03-26T06:56:43.784Z,8.81
2018-03-26T06:57:46.792Z,8.81
2018-03-26T06:58:49.842Z,8.82
2018-03-26T06:59:53.042Z,8.83
2018-03-26T07:00:56.122Z,8.83
2018-03-26T07:01:59.190Z,8.84
2018-03-26T07:03:02.280Z,8.85
2018-03-26T07:04:05.376Z,8.86
2018-03-26T07:05:08.445Z,8.87
2018-03-26T07:06:11.486Z,8.90
2018-03-26T07:07:14.533Z,8.93
2018-03-26T07:08:18.287Z,8.95
2018-03-26T07:09:21.389Z,8.96
2018-03-26T07:10:24.448Z,8.98
2018-03-26T07:11:27.483Z,9.01
2018-03-26T07:12:30.598Z,9.05
2018-03-26T07:13:33.649Z,9.10
2018-03-26T07:14:36.694Z,9.14
2018-03-26T07:15:39.795Z,9.16
2018-03-26T07:16:42.928Z,9.17
2018-03-26T07:17:46.054Z,9.21
2018-03-26T07:18:49.165Z,9.20
2018-03-26T07:19:53.062Z,9.20
2018-03-26T07:20:56.702Z,9.20
2018-03-26T07:21:59.840Z,9.21
2018-03-26T07:23:02.871Z,9.25
2018-03-26T07:24:05.972Z,9.31
2018-03-26T07:25:08.994Z,9.35
2018-03-26T07:26:12.126Z,9.41
2018-03-26T07:27:15.150Z,9.44
2018-03-26T07:28:18.191Z,9.49
2018-03-26T07:29:22.276Z,9.54
2018-03-26T07:30:25.360Z,9.59
2018-03-26T07:31:28.496Z,9.62
2018-03-26T07:32:31.540Z,9.64
2018-03-26T07:33:34.563Z,9.65
2018-03-26T07:34:37.725Z,9.66
2018-03-26T07:35:40.731Z,9.67
2018-03-26T07:36:43.799Z,9.68
2018-03-26T07:37:46.840Z,9.69
2018-03-26T07:38:49.906Z,9.71
2018-03-26T07:39:52.949Z,9.74
2018-03-26T07:40:55.992Z,9.75
2018-03-26T07:41:59.167Z,9.78
2018-03-26T07:43:02.259Z,9.79
2018-03-26T07:44:05.299Z,9.81
2018-03-26T07:45:08.419Z,9.81
2018-03-26T07:46:11.468Z,9.81
2018-03-26T07:47:14.529Z,9.83
2018-03-26T07:48:17.650Z,9.84
2018-03-26T07:49:21.484Z,9.86
2018-03-26T07:50:24.524Z,9.86
2018-03-26T07:51:27.596Z,9.89
2018-03-26T07:52:30.711Z,9.90
2018-03-26T07:53:33.737Z,9.92
2018-03-26T07:54:36.908Z,9.94
2018-03-26T07:55:39.982Z,9.96
2018-03-26T07:56:43.079Z,9.98
2018-03-26T07:57:46.148Z,10.00
2018-03-26T07:58:49.259Z,10.01
2018-03-26T07:59:52.301Z,10.02
2018-03-26T08:00:55.386Z,10.03
2018-03-26T08:01:58.453Z,10.03
2018-03-26T08:03:01.527Z,10.03
2018-03-26T08:04:04.632Z,10.03
2018-03-26T08:05:07.679Z,10.04
2018-03-26T08:06:10.756Z,10.04
2018-03-26T08:07:13.804Z,10.03
2018-03-26T08:08:16.891Z,10.02
2018-03-26T08:09:20.119Z,10.02
2018-03-26T08:10:23.149Z,10.02
2018-03-26T08:11:26.230Z,10.02
2018-03-26T08:12:29.254Z,10.02
2018-03-26T08:13:33.173Z,10.01
2018-03-26T08:14:36.216Z,10.00
2018-03-26T08:15:39.255Z,9.98
2018-03-26T08:16:42.325Z,9.98
2018-03-26T08:17:45.356Z,9.98
2018-03-26T08:18:48.443Z,9.97
2018-03-26T08:19:51.497Z,9.97
2018-03-26T08:20:54.593Z,9.96
2018-03-26T08:21:57.711Z,9.96
2018-03-26T08:23:00.933Z,9.96
2018-03-26T08:24:04.042Z,9.97
2018-03-26T08:25:07.072Z,9.96
2018-03-26T08:26:10.115Z,9.97
2018-03-26T08:27:13.179Z,9.97
2018-03-26T08:28:16.311Z,9.97
2018-03-26T08:29:19.734Z,9.95
2018-03-26T08:30:22.796Z,9.94
2018-03-26T08:31:26.431Z,9.94
2018-03-26T08:32:29.512Z,9.92
2018-03-26T08:33:32.554Z,9.92
2018-03-26T08:34:35.665Z,9.90
2018-03-26T08:35:38.728Z,9.90
2018-03-26T08:36:41.772Z,9.88
2018-03-26T08:37:44.815Z,9.88
2018-03-26T08:38:47.861Z,9.88
2018-03-26T08:39:51.861Z,9.88
2018-03-26T08:40:54.933Z,9.88
2018-03-26T08:41:57.965Z,9.88
2018-03-26T08:43:01.073Z,9.88
2018-03-26T08:44:04.162Z,9.89
2018-03-26T08:45:07.235Z,9.89
2018-03-26T08:46:10.297Z,9.89
2018-03-26T08:47:13.350Z,9.90
2018-03-26T08:48:16.425Z,9.90
2018-03-26T08:49:20.334Z,9.90
2018-03-26T08:50:23.488Z,9.91
2018-03-26T08:51:26.444Z,9.91
2018-03-26T08:52:29.476Z,9.92
2018-03-26T08:53:32.519Z,9.92
2018-03-26T08:54:35.585Z,9.93
2018-03-26T08:55:38.636Z,9.94
2018-03-26T08:56:41.701Z,9.95
2018-03-26T08:57:44.780Z,9.98
2018-03-26T08:58:47.803Z,9.98
2018-03-26T08:59:50.831Z,9.99
2018-03-26T09:00:54.733Z,10.00
2018-03-26T09:01:57.831Z,10.00
2018-03-26T09:03:00.875Z,10.00
2018-03-26T09:04:03.957Z,10.00
2018-03-26T09:05:07.034Z,10.00
2018-03-26T09:06:10.100Z,10.00
2018-03-26T09:07:13.155Z,10.00
2018-03-26T09:08:16.248Z,10.01
2018-03-26T09:09:19.302Z,10.01
2018-03-26T09:10:22.368Z,10.01
2018-03-26T09:11:25.445Z,10.03
2018-03-26T09:12:28.495Z,10.04
2018-03-26T09:13:31.593Z,10.05
2018-03-26T09:14:34.657Z,10.06
2018-03-26T09:15:37.704Z,10.07
2018-03-26T09:16:40.771Z,10.08
2018-03-26T09:17:43.865Z,10.08
2018-03-26T09:18:46.916Z,10.09
2018-03-26T09:19:49.962Z,10.09
2018-03-26T09:20:52.993Z,10.09
2018-03-26T09:21:56.165Z,10.09
2018-03-26T09:22:59.225Z,10.09
2018-03-26T09:24:02.325Z,10.09
2018-03-26T09:25:05.358Z,10.11
2018-03-26T09:26:08.411Z,10.11
2018-03-26T09:27:12.588Z,10.11
2018-03-26T09:28:15.617Z,10.11
2018-03-26T09:29:18.653Z,10.13
2018-03-26T09:30:21.753Z,10.14
2018-03-26T09:31:24.804Z,10.14
2018-03-26T09:32:27.906Z,10.15
2018-03-26T09:33:30.956Z,10.17
2018-03-26T09:34:35.175Z,10.18
2018-03-26T09:35:39.888Z,10.21
2018-03-26T09:36:42.942Z,10.22
2018-03-26T09:37:46.009Z,10.24
2018-03-26T09:38:49.058Z,10.26
2018-03-26T09:39:52.172Z,10.28
2018-03-26T09:40:55.218Z,10.30
2018-03-26T09:41:58.275Z,10.31
2018-03-26T09:43:01.416Z,10.32
2018-03-26T09:44:04.512Z,10.33
2018-03-26T09:45:07.564Z,10.33
2018-03-26T09:46:10.646Z,10.36
2018-03-26T09:47:13.683Z,10.35
2018-03-26T09:48:16.750Z,10.36
2018-03-26T09:49:19.827Z,10.37
2018-03-26T09:50:22.879Z,10.39
2018-03-26T09:51:25.938Z,10.41
2018-03-26T09:52:28.974Z,10.42
2018-03-26T09:53:32.059Z,10.44
2018-03-26T09:54:35.219Z,10.46
2018-03-26T09:55:38.317Z,10.48
2018-03-26T09:56:41.352Z,10.51
2018-03-26T09:57:45.224Z,10.53
2018-03-26T09:58:48.287Z,10.56
2018-03-26T09:59:51.328Z,10.57
2018-03-26T10:01:00.070Z,10.60
2018-03-26T10:02:11.950Z,10.64
2018-03-26T10:03:14.998Z,10.65
2018-03-26T10:04:18.129Z,10.67
2018-03-26T10:05:21.189Z,10.67
2018-03-26T10:06:24.348Z,10.69
2018-03-26T10:07:27.421Z,10.70
2018-03-26T10:08:31.684Z,10.71
2018-03-26T10:09:34.768Z,10.71
2018-03-26T10:10:37.809Z,10.73
2018-03-26T10:11:40.989Z,10.73
2018-03-26T10:12:44.033Z,10.76
2018-03-26T10:13:47.088Z,10.78
2018-03-26T10:14:50.160Z,10.80
2018-03-26T10:15:53.228Z,10.81
2018-03-26T10:16:56.299Z,10.83
2018-03-26T10:17:59.334Z,10.86
2018-03-26T10:19:02.383Z,10.88
2018-03-26T10:20:05.441Z,10.89
2018-03-26T10:21:08.505Z,10.91
2018-03-26T10:22:11.548Z,10.94
2018-03-26T10:23:14.612Z,10.96
2018-03-26T10:24:17.722Z,10.99
2018-03-26T10:25:21.024Z,11.01
2018-03-26T10:26:24.047Z,11.02
2018-03-26T10:27:27.140Z,11.04
2018-03-26T10:28:30.165Z,11.06
2018-03-26T10:29:33.204Z,11.07
2018-03-26T10:30:36.273Z,11.10
2018-03-26T10:31:39.313Z,11.13
2018-03-26T10:32:42.382Z,11.14
2018-03-26T10:33:45.435Z,11.16
2018-03-26T10:34:48.504Z,11.18
2018-03-26T10:35:51.569Z,11.20
2018-03-26T10:36:54.645Z,11.21
2018-03-26T10:37:57.689Z,11.24
2018-03-26T10:39:00.724Z,11.26
2018-03-26T10:40:04.401Z,11.29
2018-03-26T10:41:07.483Z,11.32
2018-03-26T10:42:10.572Z,11.35
2018-03-26T10:43:13.624Z,11.36
2018-03-26T10:44:16.749Z,11.39
2018-03-26T10:45:19.817Z,11.42
2018-03-26T10:46:22.871Z,11.46
2018-03-26T10:47:25.900Z,11.49
2018-03-26T10:48:28.940Z,11.54
2018-03-26T10:49:31.976Z,11.58
2018-03-26T10:50:35.043Z,11.63
2018-03-26T10:51:38.166Z,11.68
2018-03-26T10:52:41.208Z,11.72
2018-03-26T10:53:46.262Z,11.77
2018-03-26T10:54:49.307Z,11.83
2018-03-26T10:55:52.479Z,11.89
2018-03-26T10:56:55.535Z,11.94
2018-03-26T10:57:58.666Z,11.99
2018-03-26T10:59:01.746Z,12.05
2018-03-26T11:00:04.788Z,12.09
2018-03-26T11:01:07.830Z,12.14
2018-03-26T11:02:10.913Z,12.18
2018-03-26T11:03:13.944Z,12.20
2018-03-26T11:04:17.012Z,12.23
2018-03-26T11:05:20.064Z,12.25
2018-03-26T11:06:23.172Z,12.26
2018-03-26T11:07:26.277Z,12.27
2018-03-26T11:08:29.355Z,12.28
2018-03-26T11:09:32.460Z,12.30
2018-03-26T11:10:35.529Z,12.32
2018-03-26T11:11:38.644Z,12.34
2018-03-26T11:12:41.706Z,12.34
2018-03-26T11:13:44.816Z,12.35
2018-03-26T11:14:48.846Z,12.35
2018-03-26T11:15:51.885Z,12.35
2018-03-26T11:16:54.928Z,12.35
2018-03-26T11:17:58.012Z,12.35
2018-03-26T11:19:01.032Z,12.36
2018-03-26T11:20:04.106Z,12.38
2018-03-26T11:21:07.250Z,12.39
2018-03-26T11:22:10.323Z,12.40
2018-03-26T11:23:15.001Z,12.43
2018-03-26T11:24:18.110Z,12.46
2018-03-26T11:25:21.161Z,12.49
2018-03-26T11:26:24.238Z,12.52
2018-03-26T11:27:27.304Z,12.53
2018-03-26T11:28:30.439Z,12.56
2018-03-26T11:29:33.463Z,12.58
2018-03-26T11:30:36.538Z,12.60
2018-03-26T11:31:40.670Z,12.63
2018-03-26T11:32:43.745Z,12.66
2018-03-26T11:33:46.813Z,12.68
2018-03-26T11:34:49.960Z,12.71
2018-03-26T11:35:52.996Z,12.73
2018-03-26T11:36:56.037Z,12.76
2018-03-26T11:37:59.083Z,12.79
2018-03-26T11:39:02.155Z,12.83
2018-03-26T11:40:05.217Z,12.85
2018-03-26T11:41:08.300Z,12.88
2018-03-26T11:42:11.333Z,12.90
2018-03-26T11:43:14.388Z,12.94
2018-03-26T11:44:17.499Z,12.97
2018-03-26T11:45:20.724Z,13.00
2018-03-26T11:46:23.774Z,13.03
2018-03-26T11:47:26.876Z,13.07
2018-03-26T11:48:29.895Z,13.12
2018-03-26T11:49:32.990Z,13.14
2018-03-26T11:50:36.018Z,13.18
2018-03-26T11:51:39.043Z,13.21
2018-03-26T11:52:42.098Z,13.23
2018-03-26T11:53:45.152Z,13.26
2018-03-26T11:54:48.249Z,13.28
2018-03-26T11:55:51.809Z,13.30
2018-03-26T11:56:54.791Z,13.33
2018-03-26T11:57:57.837Z,13.34
2018-03-26T11:59:01.980Z,13.33
2018-03-26T12:00:05.093Z,13.34
2018-03-26T12:01:08.201Z,13.34
2018-03-26T12:02:11.251Z,13.34
2018-03-26T12:03:14.324Z,13.36
2018-03-26T12:04:17.355Z,13.36
2018-03-26T12:05:20.422Z,13.37
2018-03-26T12:06:23.492Z,13.38
2018-03-26T12:07:26.573Z,13.40
2018-03-26T12:08:29.605Z,13.43
2018-03-26T12:09:32.645Z,13.44
2018-03-26T12:10:35.711Z,13.45
2018-03-26T12:11:38.750Z,13.45
2018-03-26T12:12:41.807Z,13.44
2018-03-26T12:13:50.326Z,13.42
2018-03-26T12:14:53.363Z,13.40
2018-03-26T12:15:56.434Z,13.39
2018-03-26T12:16:59.466Z,13.38
2018-03-26T12:18:02.541Z,13.37
2018-03-26T12:19:05.590Z,13.38
2018-03-26T12:20:20.352Z,13.38
2018-03-26T12:21:23.420Z,13.37
2018-03-26T12:22:26.496Z,13.37
2018-03-26T12:23:42.045Z,13.38
2018-03-26T12:24:56.825Z,13.36
2018-03-26T12:25:59.876Z,13.35
2018-03-26T12:27:03.013Z,13.36
2018-03-26T12:28:17.791Z,13.36
2018-03-26T12:29:32.473Z,13.34
2018-03-26T12:30:36.306Z,13.32
2018-03-26T12:31:39.392Z,13.33
2018-03-26T12:32:42.440Z,13.34
2018-03-26T12:33:57.311Z,13.36
2018-03-26T12:35:12.228Z,13.36
2018-03-26T12:36:15.252Z,13.36
2018-03-26T12:37:18.283Z,13.37
2018-03-26T12:38:21.399Z,13.38
2018-03-26T12:39:24.455Z,13.36
2018-03-26T12:40:39.190Z,13.34
2018-03-26T12:41:42.199Z,13.30
2018-03-26T12:42:45.274Z,13.31
2018-03-26T12:43:48.394Z,13.32
2018-03-26T12:45:03.069Z,13.32
2018-03-26T12:46:17.820Z,13.28
2018-03-26T12:47:20.856Z,13.27
2018-03-26T12:48:23.918Z,13.27
2018-03-26T12:49:27.000Z,13.28
2018-03-26T12:50:41.846Z,13.27
2018-03-26T12:51:56.758Z,13.25
2018-03-26T12:52:59.849Z,13.25
2018-03-26T12:54:03.296Z,13.28
2018-03-26T12:55:09.805Z,13.30
2018-03-26T12:56:12.844Z,13.32
2018-03-26T12:57:27.620Z,13.34
2018-03-26T12:58:42.641Z,13.34
2018-03-26T12:59:45.730Z,13.32
2018-03-26T13:01:00.649Z,13.32
2018-03-26T13:02:15.507Z,13.30
2018-03-26T13:03:18.558Z,13.29
2018-03-26T13:04:21.628Z,13.32
2018-03-26T13:05:24.687Z,13.35
2018-03-26T13:06:27.831Z,13.38
2018-03-26T13:07:30.887Z,13.40
2018-03-26T13:08:33.947Z,13.42
2018-03-26T13:09:37.016Z,13.44
2018-03-26T13:10:40.104Z,13.46
2018-03-26T13:11:43.197Z,13.46
2018-03-26T13:12:46.320Z,13.47
2018-03-26T13:13:49.412Z,13.46
2018-03-26T13:14:52.465Z,13.46
2018-03-26T13:15:55.641Z,13.45
2018-03-26T13:16:58.746Z,13.43
2018-03-26T13:18:01.864Z,13.42
2018-03-26T13:19:04.930Z,13.41
2018-03-26T13:20:07.974Z,13.41
2018-03-26T13:21:11.009Z,13.39
2018-03-26T13:22:14.061Z,13.39
2018-03-26T13:23:17.193Z,13.37
2018-03-26T13:24:21.133Z,13.37
2018-03-26T13:25:24.181Z,13.38
2018-03-26T13:26:27.199Z,13.38
2018-03-26T13:27:30.368Z,13.39
2018-03-26T13:28:33.383Z,13.39
2018-03-26T13:29:36.470Z,13.38
2018-03-26T13:30:39.514Z,13.36
2018-03-26T13:31:42.562Z,13.34
2018-03-26T13:32:45.632Z,13.34
2018-03-26T13:33:48.678Z,13.33
2018-03-26T13:34:51.707Z,13.31
2018-03-26T13:35:54.755Z,13.30
2018-03-26T13:36:57.789Z,13.29
2018-03-26T13:38:00.861Z,13.27
2018-03-26T13:39:03.926Z,13.26
2018-03-26T13:40:07.100Z,13.24
2018-03-26T13:41:10.144Z,13.24
2018-03-26T13:42:13.207Z,13.23
2018-03-26T13:43:16.276Z,13.23
2018-03-26T13:44:19.314Z,13.23
2018-03-26T13:45:22.405Z,13.24
2018-03-26T13:46:25.432Z,13.24
2018-03-26T13:47:28.485Z,13.24
2018-03-26T13:48:31.545Z,13.25
2018-03-26T13:49:34.605Z,13.25
2018-03-26T13:50:37.689Z,13.26
2018-03-26T13:51:40.785Z,13.26